Time,TemperatureF,DewpointF,PressureIn,WindDirection,WindDirectionDegrees,WindSpeedMPH,WindSpeedGustMPH,Humidity,HourlyPrecipIn,Conditions,Clouds,dailyrainin,SoftwareType,DateUTC
2013-03-31 00:03:00,49.6,41.7,29.80,East,90,0.0,0.0,74,0.00,CLR,,0.00,WeatherDisplay:10.37,2013-03-31 07:03:00,
2013-03-31 00:08:00,49.3,41.3,29.80,East,90,0.0,0.0,74,0.00,CLR,,0.00,WeatherDisplay:10.37,2013-03-31 07:08:00,
2013-03-31 00:13:00,48.9,41.3,29.79,South,180,0.0,0.0,75,0.00,CLR,,0.00,WeatherDisplay:10.37,2013-03-31 07:13:00,
2013-03-31 00:18:00,48.7,41.2,29.80,South,180,0.0,0.0,75,0.00,CLR,,0.00,WeatherDisplay:10.37,2013-03-31 07:18:00,
2013-03-31 00:23:00,48.6,41.0,29.80,South,180,0.0,0.0,75,0.00,CLR,,0.00,WeatherDisplay:10.37,2013-03-31 07:23:00,
2013-03-31 00:28:00,48.4,40.8,29.80,South,180,0.0,0.0,75,0.00,CLR,,0.00,WeatherDisplay:10.37,2013-03-31 07:28:00,
2013-03-31 00:33:00,48.2,41.0,29.80,South,180,0.0,0.0,76,0.00,CLR,,0.00,WeatherDisplay:10.37,2013-03-31 07:33:00,
2013-03-31 00:38:00,48.0,40.8,29.79,South,180,0.0,0.0,76,0.00,CLR,,0.00,WeatherDisplay:10.37,2013-03-31 07:38:00,
2013-03-31 00:43:00,48.0,40.8,29.79,South,180,0.0,0.0,76,0.00,CLR,,0.00,WeatherDisplay:10.37,2013-03-31 07:43:00,
2013-03-31 00:48:00,47.7,40.5,29.80,South,180,0.0,0.0,76,0.00,CLR,,0.00,WeatherDisplay:10.37,2013-03-31 07:48:00,
2013-03-31 00:53:00,47.5,40.6,29.79,South,180,0.0,0.0,77,0.00,CLR,,0.00,WeatherDisplay:10.37,2013-03-31 07:53:00,
2013-03-31 00:58:00,47.1,39.9,29.79,South,180,0.0,0.0,76,0.00,CLR,,0.00,WeatherDisplay:10.37,2013-03-31 07:58:00,
2013-03-31 01:03:00,47.1,40.3,29.79,South,180,0.0,0.0,77,0.00,CLR,,0.00,WeatherDisplay:10.37,2013-03-31 08:03:00,
2013-03-31 01:08:00,46.6,39.8,29.79,South,180,0.0,0.0,77,0.00,CLR,,0.00,WeatherDisplay:10.37,2013-03-31 08:08:00,
2013-03-31 01:13:00,46.2,39.7,29.79,South,180,0.0,0.0,78,0.00,CLR,,0.00,WeatherDisplay:10.37,2013-03-31 08:13:00,
2013-03-31 01:18:00,46.0,39.6,29.80,South,180,0.0,0.0,78,0.00,CLR,,0.00,WeatherDisplay:10.37,2013-03-31 08:18:00,
2013-03-31 01:23:00,45.7,39.2,29.79,South,180,0.0,0.0,78,0.00,CLR,,0.00,WeatherDisplay:10.37,2013-03-31 08:23:00,
2013-03-31 01:28:00,45.3,39.2,29.79,South,180,0.0,0.0,79,0.00,CLR,,0.00,WeatherDisplay:10.37,2013-03-31 08:28:00,
2013-03-31 01:33:00,45.1,39.0,29.80,South,180,0.0,0.0,79,0.00,CLR,,0.00,WeatherDisplay:10.37,2013-03-31 08:33:00,
2013-03-31 01:38:00,45.0,38.8,29.79,South,180,0.0,0.0,79,0.00,CLR,,0.00,WeatherDisplay:10.37,2013-03-31 08:38:00,
2013-03-31 01:43:00,44.6,38.5,29.79,South,180,0.0,0.0,79,0.00,CLR,,0.00,WeatherDisplay:10.37,2013-03-31 08:43:00,
2013-03-31 01:48:00,44.4,38.6,29.80,South,180,0.0,0.0,80,0.00,CLR,,0.00,WeatherDisplay:10.37,2013-03-31 08:48:00,
2013-03-31 01:53:00,44.2,38.5,29.80,South,180,0.0,0.0,80,0.00,CLR,,0.00,WeatherDisplay:10.37,2013-03-31 08:53:00,
2013-03-31 01:58:00,43.9,38.1,29.79,South,180,0.0,0.0,80,0.00,CLR,,0.00,WeatherDisplay:10.37,2013-03-31 08:58:00,
2013-03-31 02:03:00,43.5,37.8,29.79,South,180,0.0,0.0,80,0.00,CLR,,0.00,WeatherDisplay:10.37,2013-03-31 09:03:00,
2013-03-31 02:08:00,43.5,38.1,29.79,South,180,0.0,0.0,81,0.00,CLR,,0.00,WeatherDisplay:10.37,2013-03-31 09:08:00,
2013-03-31 02:13:00,43.3,37.9,29.79,South,180,0.0,0.0,81,0.00,CLR,,0.00,WeatherDisplay:10.37,2013-03-31 09:13:00,
2013-03-31 02:18:00,43.0,37.5,29.78,South,180,0.0,0.0,81,0.00,CLR,,0.00,WeatherDisplay:10.37,2013-03-31 09:18:00,
2013-03-31 02:23:00,43.0,37.5,29.78,South,180,0.0,0.0,81,0.00,CLR,,0.00,WeatherDisplay:10.37,2013-03-31 09:23:00,
2013-03-31 02:28:00,42.6,37.5,29.78,South,180,0.0,0.0,82,0.00,CLR,,0.00,WeatherDisplay:10.37,2013-03-31 09:28:00,
2013-03-31 02:33:00,42.6,37.5,29.78,South,180,0.0,0.0,82,0.00,CLR,,0.00,WeatherDisplay:10.37,2013-03-31 09:33:00,
2013-03-31 02:38:00,42.4,37.3,29.78,South,180,0.0,0.0,82,0.00,CLR,,0.00,WeatherDisplay:10.37,2013-03-31 09:38:00,
2013-03-31 02:43:00,42.1,37.0,29.78,South,180,0.0,0.0,82,0.00,CLR,,0.00,WeatherDisplay:10.37,2013-03-31 09:43:00,
2013-03-31 02:48:00,42.1,37.3,29.78,South,180,0.0,0.0,83,0.00,CLR,,0.00,WeatherDisplay:10.37,2013-03-31 09:48:00,
2013-03-31 02:53:00,41.9,37.1,29.78,South,180,0.0,0.0,83,0.00,CLR,,0.00,WeatherDisplay:10.37,2013-03-31 09:53:00,
2013-03-31 02:58:00,41.7,36.9,29.78,South,180,0.0,0.0,83,0.00,CLR,,0.00,WeatherDisplay:10.37,2013-03-31 09:58:00,
2013-03-31 03:03:00,41.5,36.8,29.77,South,180,0.0,0.0,83,0.00,CLR,,0.00,WeatherDisplay:10.37,2013-03-31 10:03:00,
2013-03-31 03:08:00,41.4,36.6,29.77,South,180,0.0,0.0,83,0.00,CLR,,0.00,WeatherDisplay:10.37,2013-03-31 10:08:00,
2013-03-31 03:13:00,41.2,36.4,29.77,South,180,0.0,0.0,83,0.00,CLR,,0.00,WeatherDisplay:10.37,2013-03-31 10:13:00,
2013-03-31 03:18:00,41.2,36.7,29.77,South,180,0.0,0.0,84,0.00,CLR,,0.00,WeatherDisplay:10.37,2013-03-31 10:18:00,
2013-03-31 03:23:00,40.8,36.4,29.77,South,180,0.0,0.0,84,0.00,CLR,,0.00,WeatherDisplay:10.37,2013-03-31 10:23:00,
2013-03-31 03:28:00,40.8,36.4,29.77,South,180,0.0,0.0,84,0.00,CLR,,0.00,WeatherDisplay:10.37,2013-03-31 10:28:00,
2013-03-31 03:33:00,40.8,36.4,29.77,South,180,0.0,0.0,84,0.00,CLR,,0.00,WeatherDisplay:10.37,2013-03-31 10:33:00,
2013-03-31 03:38:00,40.6,36.2,29.77,South,180,0.0,0.0,84,0.00,CLR,,0.00,WeatherDisplay:10.37,2013-03-31 10:38:00,
2013-03-31 03:43:00,40.5,36.0,29.77,South,180,0.0,0.0,84,0.00,CLR,,0.00,WeatherDisplay:10.37,2013-03-31 10:43:00,
2013-03-31 03:48:00,40.3,36.1,29.76,South,180,0.0,0.0,85,0.00,CLR,,0.00,WeatherDisplay:10.37,2013-03-31 10:48:00,
2013-03-31 03:53:00,40.1,36.0,29.76,South,180,0.0,0.0,85,0.00,CLR,,0.00,WeatherDisplay:10.37,2013-03-31 10:53:00,
2013-03-31 03:58:00,40.1,36.0,29.76,South,180,0.0,0.0,85,0.00,CLR,,0.00,WeatherDisplay:10.37,2013-03-31 10:58:00,
2013-03-31 04:03:00,39.9,35.8,29.76,South,180,0.0,0.0,85,0.00,CLR,,0.00,WeatherDisplay:10.37,2013-03-31 11:03:00,
2013-03-31 04:08:00,39.7,35.6,29.75,South,180,0.0,0.0,85,0.00,CLR,,0.00,WeatherDisplay:10.37,2013-03-31 11:08:00,
2013-03-31 04:13:00,39.7,35.6,29.75,South,180,0.0,0.0,85,0.00,CLR,,0.00,WeatherDisplay:10.37,2013-03-31 11:13:00,
2013-03-31 04:18:00,39.6,35.4,29.75,South,180,0.0,0.0,85,0.00,CLR,,0.00,WeatherDisplay:10.37,2013-03-31 11:18:00,
2013-03-31 04:23:00,39.4,35.2,29.75,South,180,0.0,0.0,85,0.00,CLR,,0.00,WeatherDisplay:10.37,2013-03-31 11:23:00,
2013-03-31 04:28:00,39.4,35.2,29.75,South,180,0.0,0.0,85,0.00,CLR,,0.00,WeatherDisplay:10.37,2013-03-31 11:28:00,
2013-03-31 04:33:00,39.0,35.2,29.75,South,180,0.0,0.0,86,0.00,CLR,,0.00,WeatherDisplay:10.37,2013-03-31 11:33:00,
2013-03-31 04:38:00,39.0,35.2,29.75,South,180,0.0,0.0,86,0.00,CLR,,0.00,WeatherDisplay:10.37,2013-03-31 11:38:00,
2013-03-31 04:43:00,39.0,35.2,29.75,South,180,0.0,0.0,86,0.00,CLR,,0.00,WeatherDisplay:10.37,2013-03-31 11:43:00,
2013-03-31 04:48:00,38.8,35.0,29.75,South,180,0.0,0.0,86,0.00,CLR,,0.00,WeatherDisplay:10.37,2013-03-31 11:48:00,
2013-03-31 04:53:00,38.8,35.0,29.75,South,180,0.0,0.0,86,0.00,CLR,,0.00,WeatherDisplay:10.37,2013-03-31 11:53:00,
2013-03-31 04:58:00,38.8,35.0,29.75,South,180,0.0,0.0,86,0.00,CLR,,0.00,WeatherDisplay:10.37,2013-03-31 11:58:00,
2013-03-31 05:03:00,38.5,34.9,29.75,South,180,0.0,0.0,87,0.00,CLR,,0.00,WeatherDisplay:10.37,2013-03-31 12:03:00,
2013-03-31 05:08:00,38.5,34.9,29.75,South,180,0.0,0.0,87,0.00,CLR,,0.00,WeatherDisplay:10.37,2013-03-31 12:08:00,
2013-03-31 05:13:00,38.3,34.8,29.75,South,180,0.0,0.0,87,0.00,CLR,,0.00,WeatherDisplay:10.37,2013-03-31 12:13:00,
2013-03-31 05:18:00,38.3,34.8,29.75,South,180,0.0,0.0,87,0.00,CLR,,0.00,WeatherDisplay:10.37,2013-03-31 12:18:00,
2013-03-31 05:23:00,38.1,34.6,29.75,South,180,0.0,0.0,87,0.00,CLR,,0.00,WeatherDisplay:10.37,2013-03-31 12:23:00,
2013-03-31 05:28:00,38.1,34.6,29.76,South,180,0.0,0.0,87,0.00,CLR,,0.00,WeatherDisplay:10.37,2013-03-31 12:28:00,
2013-03-31 05:33:00,37.9,34.4,29.76,South,180,0.0,0.0,87,0.00,CLR,,0.00,WeatherDisplay:10.37,2013-03-31 12:33:00,
2013-03-31 05:38:00,37.9,34.4,29.76,South,180,0.0,0.0,87,0.00,CLR,,0.00,WeatherDisplay:10.37,2013-03-31 12:38:00,
2013-03-31 05:43:00,37.9,34.4,29.76,South,180,0.0,0.0,87,0.00,CLR,,0.00,WeatherDisplay:10.37,2013-03-31 12:43:00,
2013-03-31 05:48:00,37.9,34.4,29.76,South,180,0.0,0.0,87,0.00,CLR,,0.00,WeatherDisplay:10.37,2013-03-31 12:48:00,
2013-03-31 05:53:00,37.8,34.2,29.76,South,180,0.0,0.0,87,0.00,CLR,,0.00,WeatherDisplay:10.37,2013-03-31 12:53:00,
2013-03-31 05:58:00,37.6,34.1,29.76,South,180,0.0,0.0,87,0.00,CLR,,0.00,WeatherDisplay:10.37,2013-03-31 12:58:00,
2013-03-31 06:03:00,37.6,34.1,29.76,South,180,0.0,0.0,87,0.00,CLR,,0.00,WeatherDisplay:10.37,2013-03-31 13:03:00,
2013-03-31 06:08:00,37.4,33.9,29.76,South,180,0.0,0.0,87,0.00,CLR,,0.00,WeatherDisplay:10.37,2013-03-31 13:08:00,
2013-03-31 06:13:00,37.4,33.9,29.76,South,180,0.0,0.0,87,0.00,CLR,,0.00,WeatherDisplay:10.37,2013-03-31 13:13:00,
2013-03-31 06:18:00,37.2,34.0,29.76,South,180,0.0,0.0,88,0.00,CLR,,0.00,WeatherDisplay:10.37,2013-03-31 13:18:00,
2013-03-31 06:24:00,37.2,34.0,29.76,South,180,0.0,0.0,88,0.00,CLR,,0.00,WeatherDisplay:10.37,2013-03-31 13:24:00,
2013-03-31 06:29:00,37.2,34.0,29.76,South,180,0.0,0.0,88,0.00,CLR,,0.00,WeatherDisplay:10.37,2013-03-31 13:29:00,
2013-03-31 06:35:00,37.2,34.0,29.77,South,180,0.0,0.0,88,0.00,CLR,,0.00,WeatherDisplay:10.37,2013-03-31 13:35:00,
2013-03-31 06:40:00,37.0,33.8,29.77,South,180,0.0,0.0,88,0.00,CLR,,0.00,WeatherDisplay:10.37,2013-03-31 13:40:00,
2013-03-31 06:46:00,37.0,33.8,29.77,South,180,0.0,0.0,88,0.00,CLR,,0.00,WeatherDisplay:10.37,2013-03-31 13:46:00,
2013-03-31 06:52:00,36.9,33.6,29.77,South,180,0.0,0.0,88,0.00,CLR,,0.00,WeatherDisplay:10.37,2013-03-31 13:52:00,
2013-03-31 06:57:00,36.7,33.5,29.77,South,180,0.0,0.0,88,0.00,CLR,,0.00,WeatherDisplay:10.37,2013-03-31 13:57:00,
2013-03-31 07:02:00,36.7,33.5,29.77,South,180,0.0,0.0,88,0.00,CLR,,0.00,WeatherDisplay:10.37,2013-03-31 14:02:00,
2013-03-31 07:07:00,36.7,33.5,29.77,South,180,0.0,0.0,88,0.00,CLR,,0.00,WeatherDisplay:10.37,2013-03-31 14:07:00,
2013-03-31 07:12:00,36.5,33.3,29.77,South,180,0.0,0.0,88,0.00,CLR,,0.00,WeatherDisplay:10.37,2013-03-31 14:12:00,
2013-03-31 07:17:00,36.5,33.3,29.77,South,180,0.0,0.0,88,0.00,CLR,,0.00,WeatherDisplay:10.37,2013-03-31 14:17:00,
2013-03-31 07:22:00,36.7,33.5,29.77,South,180,0.0,0.0,88,0.00,CLR,,0.00,WeatherDisplay:10.37,2013-03-31 14:22:00,
2013-03-31 07:27:00,36.7,33.5,29.77,South,180,0.0,0.0,88,0.00,CLR,,0.00,WeatherDisplay:10.37,2013-03-31 14:27:00,
2013-03-31 07:32:00,36.7,33.5,29.77,South,180,0.0,0.0,88,0.00,CLR,,0.00,WeatherDisplay:10.37,2013-03-31 14:32:00,
2013-03-31 07:37:00,36.7,33.7,29.77,South,180,0.0,0.0,89,0.00,CLR,,0.00,WeatherDisplay:10.37,2013-03-31 14:37:00,
2013-03-31 07:42:00,37.0,34.1,29.77,South,180,0.0,0.0,89,0.00,CLR,,0.00,WeatherDisplay:10.37,2013-03-31 14:42:00,
2013-03-31 07:48:00,37.0,34.1,29.77,South,180,0.0,0.0,89,0.00,CLR,,0.00,WeatherDisplay:10.37,2013-03-31 14:48:00,
2013-03-31 07:53:00,37.2,34.3,29.76,South,180,0.0,0.0,89,0.00,CLR,,0.00,WeatherDisplay:10.37,2013-03-31 14:53:00,
2013-03-31 07:58:00,37.2,34.3,29.77,South,180,0.0,0.0,89,0.00,CLR,,0.00,WeatherDisplay:10.37,2013-03-31 14:58:00,
2013-03-31 08:03:00,37.4,34.5,29.77,South,180,0.0,0.0,89,0.00,CLR,,0.00,WeatherDisplay:10.37,2013-03-31 15:03:00,
2013-03-31 08:08:00,37.6,34.6,29.76,South,180,0.0,0.0,89,0.00,CLR,,0.00,WeatherDisplay:10.37,2013-03-31 15:08:00,
2013-03-31 08:13:00,37.6,34.6,29.77,South,180,0.0,0.0,89,0.00,CLR,,0.00,WeatherDisplay:10.37,2013-03-31 15:13:00,
2013-03-31 08:18:00,37.9,35.0,29.77,South,180,0.0,0.0,89,0.00,CLR,,0.00,WeatherDisplay:10.37,2013-03-31 15:18:00,
2013-03-31 08:23:00,38.1,35.2,29.77,South,180,0.0,0.0,89,0.00,CLR,,0.00,WeatherDisplay:10.37,2013-03-31 15:23:00,
2013-03-31 08:29:00,38.5,35.5,29.76,South,180,0.0,0.0,89,0.00,CLR,,0.00,WeatherDisplay:10.37,2013-03-31 15:29:00,
2013-03-31 08:34:00,39.0,36.1,29.76,South,180,0.0,0.0,89,0.00,CLR,,0.00,WeatherDisplay:10.37,2013-03-31 15:34:00,
2013-03-31 08:39:00,39.9,36.9,29.76,South,180,0.0,0.0,89,0.00,CLR,,0.00,WeatherDisplay:10.37,2013-03-31 15:39:00,
2013-03-31 08:44:00,40.5,37.5,29.76,South,180,0.0,0.0,89,0.00,CLR,,0.00,WeatherDisplay:10.37,2013-03-31 15:44:00,
2013-03-31 08:49:00,41.2,38.2,29.76,South,180,0.0,0.0,89,0.00,CLR,,0.00,WeatherDisplay:10.37,2013-03-31 15:49:00,
2013-03-31 08:54:00,42.1,39.4,29.76,South,180,0.0,0.0,90,0.00,CLR,,0.00,WeatherDisplay:10.37,2013-03-31 15:54:00,
2013-03-31 08:59:00,42.6,39.6,29.76,South,180,0.0,0.0,89,0.00,CLR,,0.00,WeatherDisplay:10.37,2013-03-31 15:59:00,
2013-03-31 09:04:00,43.3,40.3,29.76,South,180,0.0,0.0,89,0.00,CLR,,0.00,WeatherDisplay:10.37,2013-03-31 16:04:00,
2013-03-31 09:09:00,44.4,41.7,29.76,South,180,0.0,0.0,90,0.00,CLR,,0.00,WeatherDisplay:10.37,2013-03-31 16:09:00,
2013-03-31 09:14:00,45.0,41.9,29.76,South,180,0.0,0.0,89,0.00,CLR,,0.00,WeatherDisplay:10.37,2013-03-31 16:14:00,
2013-03-31 09:19:00,45.5,42.4,29.75,South,180,0.0,0.0,89,0.00,CLR,,0.00,WeatherDisplay:10.37,2013-03-31 16:19:00,
2013-03-31 09:24:00,45.7,42.6,29.76,South,180,0.0,0.0,89,0.00,CLR,,0.00,WeatherDisplay:10.37,2013-03-31 16:24:00,
2013-03-31 09:29:00,47.1,44.0,29.75,South,180,0.0,0.0,89,0.00,CLR,,0.00,WeatherDisplay:10.37,2013-03-31 16:29:00,
2013-03-31 09:34:00,47.8,44.5,29.75,South,180,0.0,0.0,88,0.00,CLR,,0.00,WeatherDisplay:10.37,2013-03-31 16:34:00,
2013-03-31 09:39:00,48.7,45.0,29.76,South,180,0.0,0.0,87,0.00,CLR,,0.00,WeatherDisplay:10.37,2013-03-31 16:39:00,
2013-03-31 09:44:00,49.3,45.6,29.75,South,180,0.0,0.0,87,0.00,CLR,,0.00,WeatherDisplay:10.37,2013-03-31 16:44:00,
2013-03-31 09:50:00,50.2,45.8,29.75,South,180,0.0,0.0,85,0.00,CLR,,0.00,WeatherDisplay:10.37,2013-03-31 16:50:00,
2013-03-31 09:54:00,51.4,46.1,29.75,NW,315,1.1,1.1,82,0.00,CLR,,0.00,WeatherDisplay:10.37,2013-03-31 16:54:00,
2013-03-31 09:59:00,52.2,45.8,29.75,West,270,0.0,0.0,79,0.00,CLR,,0.00,WeatherDisplay:10.37,2013-03-31 16:59:00,
2013-03-31 10:05:00,52.9,45.9,29.75,North,0,0.0,0.0,77,0.00,CLR,,0.00,WeatherDisplay:10.37,2013-03-31 17:05:00,
2013-03-31 10:10:00,54.0,46.6,29.75,North,0,0.0,0.0,76,0.00,CLR,,0.00,WeatherDisplay:10.37,2013-03-31 17:10:00,
2013-03-31 10:15:00,54.5,46.4,29.75,WNW,292,6.9,6.9,74,0.00,CLR,,0.00,WeatherDisplay:10.37,2013-03-31 17:15:00,
2013-03-31 10:20:00,55.2,46.7,29.75,WNW,292,0.0,0.0,73,0.00,CLR,,0.00,WeatherDisplay:10.37,2013-03-31 17:20:00,
2013-03-31 10:25:00,55.9,46.7,29.75,NNW,338,0.0,0.0,71,0.00,CLR,,0.00,WeatherDisplay:10.37,2013-03-31 17:25:00,
2013-03-31 10:30:00,56.3,46.6,29.75,WNW,292,2.3,2.3,70,0.00,CLR,,0.00,WeatherDisplay:10.37,2013-03-31 17:30:00,
2013-03-31 10:35:00,56.8,46.8,29.75,NW,315,1.2,1.2,69,0.00,CLR,,0.00,WeatherDisplay:10.37,2013-03-31 17:35:00,
2013-03-31 10:40:00,57.4,46.5,29.75,West,270,3.6,3.6,67,0.00,CLR,,0.00,WeatherDisplay:10.37,2013-03-31 17:40:00,
2013-03-31 10:45:00,57.7,46.9,29.75,NNW,338,3.5,3.5,67,0.00,CLR,,0.00,WeatherDisplay:10.37,2013-03-31 17:45:00,
2013-03-31 10:50:00,58.1,46.0,29.74,WNW,292,0.0,0.0,64,0.00,CLR,,0.00,WeatherDisplay:10.37,2013-03-31 17:50:00,
2013-03-31 10:55:00,58.6,46.1,29.75,NW,315,0.0,0.0,63,0.00,CLR,,0.00,WeatherDisplay:10.37,2013-03-31 17:55:00,
2013-03-31 11:00:00,58.8,45.8,29.75,North,0,0.0,0.0,62,0.00,CLR,,0.00,WeatherDisplay:10.37,2013-03-31 18:00:00,
2013-03-31 11:05:00,58.8,45.4,29.74,NNE,22,0.0,0.0,61,0.00,CLR,,0.00,WeatherDisplay:10.37,2013-03-31 18:05:00,
2013-03-31 11:10:00,59.5,45.6,29.75,NNW,338,0.0,0.3,60,0.00,CLR,,0.00,WeatherDisplay:10.37,2013-03-31 18:10:00,
2013-03-31 11:15:00,59.7,45.4,29.75,WNW,292,4.9,4.9,59,0.00,CLR,,0.00,WeatherDisplay:10.37,2013-03-31 18:15:00,
2013-03-31 11:20:00,59.7,45.4,29.75,WNW,292,0.0,0.0,59,0.00,CLR,,0.00,WeatherDisplay:10.37,2013-03-31 18:20:00,
2013-03-31 11:26:00,60.4,45.6,29.75,NW,315,0.0,0.0,58,0.00,CLR,,0.00,WeatherDisplay:10.37,2013-03-31 18:26:00,
2013-03-31 11:31:00,60.6,45.8,29.74,NW,315,0.0,0.0,58,0.00,CLR,,0.00,WeatherDisplay:10.37,2013-03-31 18:31:00,
2013-03-31 11:36:00,61.0,46.1,29.74,North,0,0.0,0.0,58,0.00,CLR,,0.00,WeatherDisplay:10.37,2013-03-31 18:36:00,
2013-03-31 11:41:00,61.2,45.8,29.75,West,270,0.0,0.0,57,0.00,CLR,,0.00,WeatherDisplay:10.37,2013-03-31 18:41:00,
2013-03-31 11:46:00,61.3,46.0,29.74,NW,315,1.2,1.2,57,0.00,CLR,,0.00,WeatherDisplay:10.37,2013-03-31 18:46:00,
2013-03-31 11:51:00,61.5,46.1,29.75,NE,45,2.3,2.3,57,0.00,CLR,,0.00,WeatherDisplay:10.37,2013-03-31 18:51:00,
2013-03-31 11:56:00,61.9,46.5,29.75,West,270,0.0,0.0,57,0.00,CLR,,0.00,WeatherDisplay:10.37,2013-03-31 18:56:00,
2013-03-31 12:01:00,61.9,46.5,29.74,NNW,338,5.1,5.1,57,0.00,CLR,,0.00,WeatherDisplay:10.37,2013-03-31 19:01:00,
2013-03-31 12:06:00,62.2,46.3,29.74,NW,315,3.5,3.5,56,0.00,CLR,,0.00,WeatherDisplay:10.37,2013-03-31 19:06:00,
2013-03-31 12:11:00,62.4,46.5,29.74,WNW,292,0.0,0.0,56,0.00,CLR,,0.00,WeatherDisplay:10.37,2013-03-31 19:11:00,
2013-03-31 12:16:00,62.4,46.0,29.74,SW,225,6.0,6.0,55,0.00,CLR,,0.00,WeatherDisplay:10.37,2013-03-31 19:16:00,
2013-03-31 12:22:00,62.8,46.4,29.74,WNW,292,5.8,5.8,55,0.00,CLR,,0.00,WeatherDisplay:10.37,2013-03-31 19:22:00,
2013-03-31 12:27:00,63.0,46.5,29.73,West,270,2.3,2.3,55,0.00,CLR,,0.00,WeatherDisplay:10.37,2013-03-31 19:27:00,
2013-03-31 12:33:00,63.1,46.7,29.73,WNW,292,1.6,1.6,55,0.00,CLR,,0.00,WeatherDisplay:10.37,2013-03-31 19:33:00,
2013-03-31 12:39:00,63.5,46.6,29.73,NNE,22,4.6,0.0,54,0.00,CLR,,0.00,WeatherDisplay:10.37,2013-03-31 19:39:00,
2013-03-31 12:44:00,63.7,46.7,29.74,NW,315,4.6,4.6,54,0.00,CLR,,0.00,WeatherDisplay:10.37,2013-03-31 19:44:00,
2013-03-31 12:49:00,64.0,47.1,29.73,West,270,6.9,6.9,54,0.00,CLR,,0.00,WeatherDisplay:10.37,2013-03-31 19:49:00,
2013-03-31 12:54:00,64.0,46.6,29.74,NW,315,1.6,1.6,53,0.00,CLR,,0.00,WeatherDisplay:10.37,2013-03-31 19:54:00,
2013-03-31 12:59:00,64.2,46.7,29.73,WNW,292,2.5,2.5,53,0.00,CLR,,0.00,WeatherDisplay:10.37,2013-03-31 19:59:00,
2013-03-31 13:04:00,64.4,46.9,29.73,NW,315,3.5,3.5,53,0.00,CLR,,0.00,WeatherDisplay:10.37,2013-03-31 20:04:00,
2013-03-31 13:09:00,64.6,46.6,29.73,NNW,338,5.8,0.0,52,0.00,CLR,,0.00,WeatherDisplay:10.37,2013-03-31 20:09:00,
2013-03-31 13:14:00,64.9,47.4,29.73,SW,225,0.0,0.0,53,0.00,CLR,,0.00,WeatherDisplay:10.37,2013-03-31 20:14:00,
2013-03-31 13:19:00,65.1,47.1,29.73,West,270,5.8,5.8,52,0.00,CLR,,0.00,WeatherDisplay:10.37,2013-03-31 20:19:00,
2013-03-31 13:24:00,65.3,47.2,29.72,West,270,9.2,9.2,52,0.00,CLR,,0.00,WeatherDisplay:10.37,2013-03-31 20:24:00,
2013-03-31 13:29:00,65.5,46.3,29.72,WNW,292,3.6,3.6,50,0.00,CLR,,0.00,WeatherDisplay:10.37,2013-03-31 20:29:00,
2013-03-31 13:34:00,65.5,46.3,29.72,NNW,338,9.2,9.2,50,0.00,CLR,,0.00,WeatherDisplay:10.37,2013-03-31 20:34:00,
2013-03-31 13:39:00,65.7,46.0,29.72,NW,315,7.2,7.2,49,0.00,CLR,,0.00,WeatherDisplay:10.37,2013-03-31 20:39:00,
2013-03-31 13:45:00,65.8,46.7,29.72,NW,315,0.0,0.0,50,0.00,CLR,,0.00,WeatherDisplay:10.37,2013-03-31 20:45:00,
2013-03-31 13:50:00,66.0,46.3,29.72,West,270,7.2,7.2,49,0.00,CLR,,0.00,WeatherDisplay:10.37,2013-03-31 20:50:00,
2013-03-31 13:56:00,66.2,46.5,29.72,WNW,292,4.6,4.6,49,0.00,CLR,,0.00,WeatherDisplay:10.37,2013-03-31 20:56:00,
2013-03-31 14:01:00,66.4,46.6,29.71,NNW,338,0.0,0.0,49,0.00,CLR,,0.00,WeatherDisplay:10.37,2013-03-31 21:01:00,
2013-03-31 14:07:00,66.6,46.8,29.71,WNW,292,0.0,0.0,49,0.00,CLR,,0.00,WeatherDisplay:10.37,2013-03-31 21:07:00,
2013-03-31 14:13:00,66.9,47.1,29.71,NW,315,2.3,0.0,49,0.00,CLR,,0.00,WeatherDisplay:10.37,2013-03-31 21:13:00,
2013-03-31 14:18:00,67.1,46.7,29.71,WNW,292,0.0,0.0,48,0.00,CLR,,0.00,WeatherDisplay:10.37,2013-03-31 21:18:00,
2013-03-31 14:24:00,67.6,47.2,29.70,WNW,292,0.0,0.0,48,0.00,CLR,,0.00,WeatherDisplay:10.37,2013-03-31 21:24:00,
2013-03-31 14:30:00,67.8,46.8,29.70,WNW,292,2.7,2.7,47,0.00,CLR,,0.00,WeatherDisplay:10.37,2013-03-31 21:30:00,
2013-03-31 14:35:00,67.8,46.8,29.70,WNW,292,4.0,4.0,47,0.00,CLR,,0.00,WeatherDisplay:10.37,2013-03-31 21:35:00,
2013-03-31 14:41:00,68.0,47.0,29.70,NW,315,5.8,5.8,47,0.00,CLR,,0.00,WeatherDisplay:10.37,2013-03-31 21:41:00,
2013-03-31 14:46:00,68.4,47.3,29.70,NW,315,4.9,4.9,47,0.00,CLR,,0.00,WeatherDisplay:10.37,2013-03-31 21:46:00,
2013-03-31 14:51:00,68.5,46.9,29.69,NNE,22,4.6,4.6,46,0.00,CLR,,0.00,WeatherDisplay:10.37,2013-03-31 21:51:00,
2013-03-31 14:56:00,68.7,47.1,29.69,West,270,5.8,5.8,46,0.00,CLR,,0.00,WeatherDisplay:10.37,2013-03-31 21:56:00,
2013-03-31 15:01:00,68.9,46.7,29.69,WNW,292,3.5,3.6,45,0.00,CLR,,0.00,WeatherDisplay:10.37,2013-03-31 22:01:00,
2013-03-31 15:06:00,68.9,47.3,29.69,WNW,292,2.3,2.3,46,0.00,CLR,,0.00,WeatherDisplay:10.37,2013-03-31 22:06:00,
2013-03-31 15:11:00,68.9,47.3,29.69,North,0,5.8,6.3,46,0.00,CLR,,0.00,WeatherDisplay:10.37,2013-03-31 22:11:00,
2013-03-31 15:16:00,69.4,47.8,29.69,NW,315,3.5,3.5,46,0.00,CLR,,0.00,WeatherDisplay:10.37,2013-03-31 22:16:00,
2013-03-31 15:21:00,69.4,47.2,29.69,WNW,292,5.8,5.8,45,0.00,CLR,,0.00,WeatherDisplay:10.37,2013-03-31 22:21:00,
2013-03-31 15:26:00,69.4,47.2,29.68,North,0,3.5,3.5,45,0.00,CLR,,0.00,WeatherDisplay:10.37,2013-03-31 22:26:00,
2013-03-31 15:31:00,69.4,47.2,29.68,WNW,292,3.8,3.8,45,0.00,CLR,,0.00,WeatherDisplay:10.37,2013-03-31 22:31:00,
2013-03-31 15:36:00,69.6,47.9,29.68,NNW,338,0.0,0.0,46,0.00,CLR,,0.00,WeatherDisplay:10.37,2013-03-31 22:36:00,
2013-03-31 15:41:00,69.6,47.3,29.68,WNW,292,0.0,0.0,45,0.00,CLR,,0.00,WeatherDisplay:10.37,2013-03-31 22:41:00,
2013-03-31 15:46:00,70.0,48.2,29.67,WSW,248,0.0,0.0,46,0.00,CLR,,0.00,WeatherDisplay:10.37,2013-03-31 22:46:00,
2013-03-31 15:51:00,70.0,48.2,29.67,West,270,0.0,0.0,46,0.00,CLR,,0.00,WeatherDisplay:10.37,2013-03-31 22:51:00,
2013-03-31 15:56:00,70.2,47.8,29.67,NNE,22,5.8,5.8,45,0.00,CLR,,0.00,WeatherDisplay:10.37,2013-03-31 22:56:00,
2013-03-31 16:01:00,70.2,47.8,29.67,NW,315,0.0,0.0,45,0.00,CLR,,0.00,WeatherDisplay:10.37,2013-03-31 23:01:00,
2013-03-31 16:06:00,70.2,47.8,29.67,NW,315,0.0,0.0,45,0.00,CLR,,0.00,WeatherDisplay:10.37,2013-03-31 23:06:00,
2013-03-31 16:11:00,70.2,47.8,29.67,NNW,338,2.3,0.0,45,0.00,CLR,,0.00,WeatherDisplay:10.37,2013-03-31 23:11:00,
2013-03-31 16:16:00,70.0,47.7,29.67,West,270,0.0,0.0,45,0.00,CLR,,0.00,WeatherDisplay:10.37,2013-03-31 23:16:00,
2013-03-31 16:21:00,70.0,47.7,29.67,NNW,338,2.3,2.3,45,0.00,CLR,,0.00,WeatherDisplay:10.37,2013-03-31 23:21:00,
2013-03-31 16:26:00,69.8,47.5,29.67,NNW,338,8.1,0.0,45,0.00,CLR,,0.00,WeatherDisplay:10.37,2013-03-31 23:26:00,
2013-03-31 16:31:00,69.6,47.3,29.66,NNW,338,3.5,3.5,45,0.00,CLR,,0.00,WeatherDisplay:10.37,2013-03-31 23:31:00,
2013-03-31 16:36:00,69.6,47.3,29.66,WNW,292,0.0,0.0,45,0.00,CLR,,0.00,WeatherDisplay:10.37,2013-03-31 23:36:00,
2013-03-31 16:41:00,69.6,47.3,29.66,NNW,338,0.0,0.0,45,0.00,CLR,,0.00,WeatherDisplay:10.37,2013-03-31 23:41:00,
2013-03-31 16:46:00,69.6,47.3,29.65,WNW,292,0.0,0.0,45,0.00,CLR,,0.00,WeatherDisplay:10.37,2013-03-31 23:46:00,
2013-03-31 16:51:00,69.6,47.3,29.65,NNW,338,0.0,0.0,45,0.00,CLR,,0.00,WeatherDisplay:10.37,2013-03-31 23:51:00,
2013-03-31 16:56:00,69.6,47.3,29.65,WNW,292,0.0,0.0,45,0.00,CLR,,0.00,WeatherDisplay:10.37,2013-03-31 23:56:00,
2013-03-31 17:01:00,69.6,47.3,29.65,West,270,0.0,0.0,45,0.00,CLR,,0.00,WeatherDisplay:10.37,2013-04-01 00:01:00,
2013-03-31 17:06:00,69.6,47.3,29.65,WNW,292,0.0,0.0,45,0.00,CLR,,0.00,WeatherDisplay:10.37,2013-04-01 00:06:00,
2013-03-31 17:11:00,69.6,47.3,29.65,NNE,22,0.0,0.0,45,0.00,CLR,,0.00,WeatherDisplay:10.37,2013-04-01 00:11:00,
2013-03-31 17:16:00,69.6,47.3,29.65,West,270,6.9,6.9,45,0.00,CLR,,0.00,WeatherDisplay:10.37,2013-04-01 00:16:00,
2013-03-31 17:21:00,69.6,47.3,29.65,NW,315,0.0,0.0,45,0.00,CLR,,0.00,WeatherDisplay:10.37,2013-04-01 00:21:00,
2013-03-31 17:26:00,69.8,47.5,29.65,NNE,22,0.0,0.0,45,0.00,CLR,,0.00,WeatherDisplay:10.37,2013-04-01 00:26:00,
2013-03-31 17:31:00,70.0,47.7,29.65,NW,315,2.7,2.7,45,0.00,CLR,,0.00,WeatherDisplay:10.37,2013-04-01 00:31:00,
2013-03-31 17:36:00,70.0,47.7,29.65,West,270,0.0,0.0,45,0.00,CLR,,0.00,WeatherDisplay:10.37,2013-04-01 00:36:00,
2013-03-31 17:41:00,70.0,47.7,29.65,NNE,22,0.0,0.0,45,0.00,CLR,,0.00,WeatherDisplay:10.37,2013-04-01 00:41:00,
2013-03-31 17:46:00,69.6,47.3,29.65,West,270,3.5,3.5,45,0.00,CLR,,0.00,WeatherDisplay:10.37,2013-04-01 00:46:00,
2013-03-31 17:51:00,69.4,46.6,29.65,NE,45,0.0,0.0,44,0.00,CLR,,0.00,WeatherDisplay:10.37,2013-04-01 00:51:00,
2013-03-31 17:56:00,69.3,46.4,29.65,NE,45,2.3,2.3,44,0.00,CLR,,0.00,WeatherDisplay:10.37,2013-04-01 00:56:00,
2013-03-31 18:01:00,68.7,46.5,29.65,NNW,338,0.0,0.0,45,0.00,CLR,,0.00,WeatherDisplay:10.37,2013-04-01 01:01:00,
2013-03-31 18:06:00,68.4,46.8,29.64,WNW,292,0.0,0.0,46,0.00,CLR,,0.00,WeatherDisplay:10.37,2013-04-01 01:06:00,
2013-03-31 18:11:00,68.2,46.6,29.64,NW,315,0.0,0.0,46,0.00,CLR,,0.00,WeatherDisplay:10.37,2013-04-01 01:11:00,
2013-03-31 18:16:00,67.8,46.3,29.64,NNW,338,0.0,0.0,46,0.00,CLR,,0.00,WeatherDisplay:10.37,2013-04-01 01:16:00,
2013-03-31 18:21:00,67.6,46.1,29.65,NW,315,0.0,0.0,46,0.00,CLR,,0.00,WeatherDisplay:10.37,2013-04-01 01:21:00,
2013-03-31 18:26:00,67.3,46.4,29.65,NW,315,0.0,0.0,47,0.00,CLR,,0.00,WeatherDisplay:10.37,2013-04-01 01:26:00,
2013-03-31 18:31:00,66.9,46.0,29.65,WNW,292,0.0,0.0,47,0.00,CLR,,0.00,WeatherDisplay:10.37,2013-04-01 01:31:00,
2013-03-31 18:36:00,66.7,45.9,29.65,NW,315,0.0,0.0,47,0.00,CLR,,0.00,WeatherDisplay:10.37,2013-04-01 01:36:00,
2013-03-31 18:41:00,66.6,45.7,29.65,WNW,292,0.0,0.0,47,0.00,CLR,,0.00,WeatherDisplay:10.37,2013-04-01 01:41:00,
2013-03-31 18:46:00,66.0,45.8,29.65,North,0,0.0,0.0,48,0.00,CLR,,0.00,WeatherDisplay:10.37,2013-04-01 01:46:00,
2013-03-31 18:51:00,66.0,45.8,29.65,NW,315,0.0,0.0,48,0.00,CLR,,0.00,WeatherDisplay:10.37,2013-04-01 01:51:00,
2013-03-31 18:56:00,65.8,45.6,29.65,NW,315,1.2,1.2,48,0.00,CLR,,0.00,WeatherDisplay:10.37,2013-04-01 01:56:00,
2013-03-31 19:01:00,65.5,45.3,29.65,NNW,338,0.0,0.0,48,0.00,CLR,,0.00,WeatherDisplay:10.37,2013-04-01 02:01:00,
2013-03-31 19:06:00,65.1,44.9,29.65,NNW,338,0.0,0.0,48,0.00,CLR,,0.00,WeatherDisplay:10.37,2013-04-01 02:06:00,
2013-03-31 19:11:00,64.8,44.6,29.65,NNW,338,0.0,0.0,48,0.00,CLR,,0.00,WeatherDisplay:10.37,2013-04-01 02:11:00,
2013-03-31 19:16:00,64.2,44.6,29.65,NNW,338,0.0,0.0,49,0.00,CLR,,0.00,WeatherDisplay:10.37,2013-04-01 02:16:00,
2013-03-31 19:21:00,64.0,45.0,29.65,NNW,338,0.0,0.0,50,0.00,CLR,,0.00,WeatherDisplay:10.37,2013-04-01 02:21:00,
2013-03-31 19:26:00,63.7,44.7,29.65,NNW,338,0.0,0.0,50,0.00,CLR,,0.00,WeatherDisplay:10.37,2013-04-01 02:26:00,
2013-03-31 19:31:00,63.0,44.5,29.65,NNW,338,0.0,0.0,51,0.00,CLR,,0.00,WeatherDisplay:10.37,2013-04-01 02:31:00,
2013-03-31 19:36:00,62.6,44.7,29.65,NNW,338,0.0,0.0,52,0.00,CLR,,0.00,WeatherDisplay:10.37,2013-04-01 02:36:00,
2013-03-31 19:41:00,62.4,44.0,29.65,NNW,338,0.0,0.0,51,0.00,CLR,,0.00,WeatherDisplay:10.37,2013-04-01 02:41:00,
2013-03-31 19:46:00,61.9,44.1,29.65,North,0,0.0,0.0,52,0.00,CLR,,0.00,WeatherDisplay:10.37,2013-04-01 02:46:00,
2013-03-31 19:51:00,61.5,44.2,29.65,North,0,0.0,0.0,53,0.00,CLR,,0.00,WeatherDisplay:10.37,2013-04-01 02:51:00,
2013-03-31 19:56:00,61.3,44.1,29.65,North,0,0.0,0.0,53,0.00,CLR,,0.00,WeatherDisplay:10.37,2013-04-01 02:56:00,
2013-03-31 20:02:00,60.6,43.9,29.65,North,0,0.0,0.0,54,0.00,CLR,,0.00,WeatherDisplay:10.37,2013-04-01 03:02:00,
2013-03-31 20:07:00,60.3,43.5,29.65,North,0,0.0,0.0,54,0.00,CLR,,0.00,WeatherDisplay:10.37,2013-04-01 03:07:00,
2013-03-31 20:12:00,59.2,43.5,29.65,North,0,0.0,0.0,56,0.00,CLR,,0.00,WeatherDisplay:10.37,2013-04-01 03:12:00,
2013-03-31 20:17:00,58.6,43.4,29.65,North,0,0.0,0.0,57,0.00,CLR,,0.00,WeatherDisplay:10.37,2013-04-01 03:17:00,
2013-03-31 20:23:00,57.7,43.1,29.65,North,0,0.0,0.0,58,0.00,CLR,,0.00,WeatherDisplay:10.37,2013-04-01 03:23:00,
2013-03-31 20:28:00,57.0,42.8,29.65,North,0,0.0,0.0,59,0.00,CLR,,0.00,WeatherDisplay:10.37,2013-04-01 03:28:00,
2013-03-31 20:33:00,56.5,42.8,29.65,North,0,0.0,0.0,60,0.00,CLR,,0.00,WeatherDisplay:10.37,2013-04-01 03:33:00,
2013-03-31 20:39:00,55.9,42.7,29.66,North,0,0.0,0.0,61,0.00,CLR,,0.00,WeatherDisplay:10.37,2013-04-01 03:39:00,
2013-03-31 20:45:00,55.2,42.4,29.65,North,0,0.0,0.0,62,0.00,CLR,,0.00,WeatherDisplay:10.37,2013-04-01 03:45:00,
2013-03-31 20:50:00,54.9,42.5,29.66,North,0,0.0,0.0,63,0.00,CLR,,0.00,WeatherDisplay:10.37,2013-04-01 03:50:00,
2013-03-31 20:55:00,54.3,42.4,29.66,North,0,0.0,0.0,64,0.00,CLR,,0.00,WeatherDisplay:10.37,2013-04-01 03:55:00,
2013-03-31 21:01:00,54.0,42.5,29.66,North,0,0.0,0.0,65,0.00,CLR,,0.00,WeatherDisplay:10.37,2013-04-01 04:01:00,
2013-03-31 21:02:00,54.0,42.5,29.66,North,0,0.0,0.0,65,0.00,CLR,,0.00,WeatherDisplay:10.37,2013-04-01 04:02:00,
2013-03-31 21:07:00,53.4,42.3,29.67,North,0,0.0,0.0,66,0.00,CLR,,0.00,WeatherDisplay:10.37,2013-04-01 04:07:00,
2013-03-31 21:09:00,53.2,42.2,29.67,North,0,0.0,0.0,66,0.00,CLR,,0.00,WeatherDisplay:10.37,2013-04-01 04:09:00,
2013-03-31 21:13:00,52.9,41.8,29.67,North,0,0.0,0.0,66,0.00,CLR,,0.00,WeatherDisplay:10.37,2013-04-01 04:13:00,
2013-03-31 21:18:00,52.5,41.9,29.67,North,0,0.0,0.0,67,0.00,CLR,,0.00,WeatherDisplay:10.37,2013-04-01 04:18:00,
2013-03-31 21:23:00,52.3,41.7,29.67,North,0,0.0,0.0,67,0.00,CLR,,0.00,WeatherDisplay:10.37,2013-04-01 04:23:00,
2013-03-31 21:28:00,52.0,41.7,29.67,North,0,0.0,0.0,68,0.00,CLR,,0.00,WeatherDisplay:10.37,2013-04-01 04:28:00,
2013-03-31 21:33:00,51.6,41.8,29.67,North,0,0.0,0.0,69,0.00,CLR,,0.00,WeatherDisplay:10.37,2013-04-01 04:33:00,
2013-03-31 21:39:00,51.4,41.6,29.68,North,0,0.0,0.0,69,0.00,CLR,,0.00,WeatherDisplay:10.37,2013-04-01 04:39:00,
2013-03-31 21:44:00,50.9,41.8,29.68,North,0,0.0,0.0,71,0.00,CLR,,0.00,WeatherDisplay:10.37,2013-04-01 04:44:00,
2013-03-31 21:49:00,50.7,41.7,29.68,North,0,0.0,0.0,71,0.00,CLR,,0.00,WeatherDisplay:10.37,2013-04-01 04:49:00,
2013-03-31 21:54:00,50.5,41.8,29.68,North,0,0.0,0.0,72,0.00,CLR,,0.00,WeatherDisplay:10.37,2013-04-01 04:54:00,
2013-03-31 21:59:00,50.2,41.5,29.68,North,0,0.0,0.0,72,0.00,CLR,,0.00,WeatherDisplay:10.37,2013-04-01 04:59:00,
2013-03-31 22:04:00,49.8,41.2,29.68,North,0,0.0,0.0,72,0.00,CLR,,0.00,WeatherDisplay:10.37,2013-04-01 05:04:00,
2013-03-31 22:09:00,49.6,41.3,29.68,North,0,0.0,0.0,73,0.00,CLR,,0.00,WeatherDisplay:10.37,2013-04-01 05:09:00,
2013-03-31 22:14:00,49.5,41.2,29.69,North,0,0.0,0.0,73,0.00,CLR,,0.00,WeatherDisplay:10.37,2013-04-01 05:14:00,
2013-03-31 22:19:00,49.3,41.0,29.69,North,0,0.0,0.0,73,0.00,CLR,,0.00,WeatherDisplay:10.37,2013-04-01 05:19:00,
2013-03-31 22:24:00,49.1,41.2,29.69,North,0,0.0,0.0,74,0.00,CLR,,0.00,WeatherDisplay:10.37,2013-04-01 05:24:00,
2013-03-31 22:29:00,48.7,40.8,29.69,North,0,0.0,0.0,74,0.00,CLR,,0.00,WeatherDisplay:10.37,2013-04-01 05:29:00,
2013-03-31 22:34:00,48.7,41.2,29.69,North,0,0.0,0.0,75,0.00,CLR,,0.00,WeatherDisplay:10.37,2013-04-01 05:34:00,
2013-03-31 22:39:00,48.4,40.8,29.69,North,0,0.0,0.0,75,0.00,CLR,,0.00,WeatherDisplay:10.37,2013-04-01 05:39:00,
2013-03-31 22:44:00,48.0,40.8,29.69,North,0,0.0,0.0,76,0.00,CLR,,0.00,WeatherDisplay:10.37,2013-04-01 05:44:00,
2013-03-31 22:49:00,48.0,40.8,29.70,North,0,0.0,0.0,76,0.00,CLR,,0.00,WeatherDisplay:10.37,2013-04-01 05:49:00,
2013-03-31 22:54:00,47.8,40.6,29.70,North,0,0.0,0.0,76,0.00,CLR,,0.00,WeatherDisplay:10.37,2013-04-01 05:54:00,
2013-03-31 22:59:00,47.5,40.6,29.69,North,0,0.0,0.0,77,0.00,CLR,,0.00,WeatherDisplay:10.37,2013-04-01 05:59:00,
2013-03-31 23:04:00,47.3,40.5,29.70,North,0,0.0,0.0,77,0.00,CLR,,0.00,WeatherDisplay:10.37,2013-04-01 06:04:00,
2013-03-31 23:09:00,47.3,40.5,29.70,North,0,0.0,0.0,77,0.00,CLR,,0.00,WeatherDisplay:10.37,2013-04-01 06:09:00,
2013-03-31 23:14:00,47.1,40.3,29.70,North,0,0.0,0.0,77,0.00,CLR,,0.00,WeatherDisplay:10.37,2013-04-01 06:14:00,
2013-03-31 23:19:00,46.9,40.4,29.70,North,0,0.0,0.0,78,0.00,CLR,,0.00,WeatherDisplay:10.37,2013-04-01 06:19:00,
2013-03-31 23:24:00,46.8,40.3,29.70,North,0,0.0,0.0,78,0.00,CLR,,0.00,WeatherDisplay:10.37,2013-04-01 06:24:00,
2013-03-31 23:29:00,46.6,40.1,29.70,North,0,0.0,0.0,78,0.00,CLR,,0.00,WeatherDisplay:10.37,2013-04-01 06:29:00,
2013-03-31 23:34:00,46.2,40.1,29.70,North,0,0.0,0.0,79,0.00,CLR,,0.00,WeatherDisplay:10.37,2013-04-01 06:34:00,
2013-03-31 23:39:00,46.2,40.1,29.70,North,0,0.0,0.0,79,0.00,CLR,,0.00,WeatherDisplay:10.37,2013-04-01 06:39:00,
2013-03-31 23:44:00,46.2,40.4,29.70,North,0,0.0,0.0,80,0.00,CLR,,0.00,WeatherDisplay:10.37,2013-04-01 06:44:00,
2013-03-31 23:49:00,46.0,40.2,29.71,North,0,0.0,0.0,80,0.00,CLR,,0.00,WeatherDisplay:10.37,2013-04-01 06:49:00,
2013-03-31 23:55:00,46.0,40.2,29.71,North,0,0.0,0.0,80,0.00,CLR,,0.00,WeatherDisplay:10.37,2013-04-01 06:55:00,